sensor_id;sensor_type;location;lat;lon;timestamp;pressure;altitude;pressure_sealevel;temperature;humidity
42289;BME280;30230;47.520;19.016;2023-04-02T00:01:05;98044.66;;;9.32;80.29
42289;BME280;30230;47.520;19.016;2023-04-02T00:03:06;98046.38;;;9.26;80.34
42289;BME280;30230;47.520;19.016;2023-04-02T00:07:27;98052.19;;;9.23;80.81
42289;BME280;30230;47.520;19.016;2023-04-02T00:09:34;98046.28;;;9.33;80.54
42289;BME280;30230;47.520;19.016;2023-04-02T00:11:37;98055.78;;;9.17;81.16
42289;BME280;30230;47.520;19.016;2023-04-02T00:13:44;98048.38;;;9.12;82.26
42289;BME280;30230;47.520;19.016;2023-04-02T00:15:49;98054.59;;;9.31;81.34
42289;BME280;30230;47.520;19.016;2023-04-02T00:17:56;98043.28;;;9.23;81.17
42289;BME280;30230;47.520;19.016;2023-04-02T00:19:59;98046.56;;;9.25;81.61
42289;BME280;30230;47.520;19.016;2023-04-02T00:22:05;98057.44;;;9.18;81.89
42289;BME280;30230;47.520;19.016;2023-04-02T00:24:14;98054.59;;;9.13;82.38
42289;BME280;30230;47.520;19.016;2023-04-02T00:26:39;98061.25;;;9.10;82.18
42289;BME280;30230;47.520;19.016;2023-04-02T00:28:41;98039.41;;;9.00;82.28
42289;BME280;30230;47.520;19.016;2023-04-02T00:32:50;98054.91;;;9.23;82.90
42289;BME280;30230;47.520;19.016;2023-04-02T00:34:51;98057.34;;;9.25;81.92
42289;BME280;30230;47.520;19.016;2023-04-02T00:36:52;98046.66;;;9.18;82.06
42289;BME280;30230;47.520;19.016;2023-04-02T00:38:54;98051.47;;;9.16;81.98
42289;BME280;30230;47.520;19.016;2023-04-02T00:41:00;98050.09;;;9.07;82.61
42289;BME280;30230;47.520;19.016;2023-04-02T00:43:01;98047.56;;;9.12;83.01
42289;BME280;30230;47.520;19.016;2023-04-02T00:45:03;98049.06;;;9.08;83.04
42289;BME280;30230;47.520;19.016;2023-04-02T00:47:14;98049.50;;;9.23;82.54
42289;BME280;30230;47.520;19.016;2023-04-02T00:49:28;98051.22;;;9.18;82.51
42289;BME280;30230;47.520;19.016;2023-04-02T00:51:36;98048.50;;;8.99;82.98
42289;BME280;30230;47.520;19.016;2023-04-02T00:53:38;98056.91;;;9.09;82.89
42289;BME280;30230;47.520;19.016;2023-04-02T00:55:40;98058.72;;;9.16;81.67
42289;BME280;30230;47.520;19.016;2023-04-02T00:57:41;98063.97;;;9.10;82.11
42289;BME280;30230;47.520;19.016;2023-04-02T01:02:28;98063.13;;;9.10;82.24
42289;BME280;30230;47.520;19.016;2023-04-02T01:04:33;98063.28;;;9.15;82.64
42289;BME280;30230;47.520;19.016;2023-04-02T01:06:36;98063.72;;;9.12;82.11
42289;BME280;30230;47.520;19.016;2023-04-02T01:19:48;98061.47;;;9.09;82.26
42289;BME280;30230;47.520;19.016;2023-04-02T01:22:06;98052.81;;;9.07;82.74
42289;BME280;30230;47.520;19.016;2023-04-02T01:24:12;98064.00;;;9.04;82.57
42289;BME280;30230;47.520;19.016;2023-04-02T01:26:22;98052.72;;;8.95;83.93
42289;BME280;30230;47.520;19.016;2023-04-02T01:30:54;98047.38;;;8.88;83.62
42289;BME280;30230;47.520;19.016;2023-04-02T01:32:55;98051.97;;;9.06;83.19
42289;BME280;30230;47.520;19.016;2023-04-02T01:34:56;98055.78;;;8.99;83.77
42289;BME280;30230;47.520;19.016;2023-04-02T01:41:53;98052.56;;;9.08;82.64
42289;BME280;30230;47.520;19.016;2023-04-02T01:44:06;98068.81;;;9.02;82.84
42289;BME280;30230;47.520;19.016;2023-04-02T01:46:28;98073.06;;;8.91;83.82
42289;BME280;30230;47.520;19.016;2023-04-02T01:48:29;98068.06;;;8.95;83.80
42289;BME280;30230;47.520;19.016;2023-04-02T01:50:35;98068.50;;;8.92;84.56
42289;BME280;30230;47.520;19.016;2023-04-02T01:52:40;98079.00;;;9.00;83.90
42289;BME280;30230;47.520;19.016;2023-04-02T01:54:41;98067.44;;;8.93;83.63
42289;BME280;30230;47.520;19.016;2023-04-02T01:56:42;98081.72;;;8.93;84.02
42289;BME280;30230;47.520;19.016;2023-04-02T01:58:44;98069.16;;;8.87;84.15
42289;BME280;30230;47.520;19.016;2023-04-02T02:01:03;98079.72;;;9.07;83.92
42289;BME280;30230;47.520;19.016;2023-04-02T02:03:10;98073.59;;;9.00;83.60
42289;BME280;30230;47.520;19.016;2023-04-02T02:05:13;98072.91;;;8.86;84.90
42289;BME280;30230;47.520;19.016;2023-04-02T02:07:17;98074.78;;;8.85;85.34
42289;BME280;30230;47.520;19.016;2023-04-02T02:09:22;98088.22;;;8.85;85.60
42289;BME280;30230;47.520;19.016;2023-04-02T02:11:26;98085.78;;;8.84;86.09
42289;BME280;30230;47.520;19.016;2023-04-02T02:13:27;98080.72;;;8.94;85.05
42289;BME280;30230;47.520;19.016;2023-04-02T02:15:31;98088.00;;;8.87;85.83
42289;BME280;30230;47.520;19.016;2023-04-02T02:17:32;98091.84;;;8.98;85.46
42289;BME280;30230;47.520;19.016;2023-04-02T02:19:52;98085.03;;;8.95;85.38
42289;BME280;30230;47.520;19.016;2023-04-02T02:24:23;98091.16;;;8.84;85.82
42289;BME280;30230;47.520;19.016;2023-04-02T02:26:25;98091.81;;;8.79;86.47
42289;BME280;30230;47.520;19.016;2023-04-02T02:28:32;98091.09;;;8.91;86.11
42289;BME280;30230;47.520;19.016;2023-04-02T02:30:44;98092.66;;;8.98;85.45
42289;BME280;30230;47.520;19.016;2023-04-02T02:33:23;98088.16;;;8.92;85.24
42289;BME280;30230;47.520;19.016;2023-04-02T02:35:29;98081.28;;;8.96;85.24
42289;BME280;30230;47.520;19.016;2023-04-02T02:37:36;98087.50;;;8.97;85.54
42289;BME280;30230;47.520;19.016;2023-04-02T02:39:42;98084.88;;;8.90;85.74
42289;BME280;30230;47.520;19.016;2023-04-02T02:41:59;98083.50;;;8.81;86.88
42289;BME280;30230;47.520;19.016;2023-04-02T02:44:19;98083.81;;;8.91;86.33
42289;BME280;30230;47.520;19.016;2023-04-02T02:46:23;98078.75;;;9.01;85.55
42289;BME280;30230;47.520;19.016;2023-04-02T02:48:34;98081.28;;;8.96;85.67
42289;BME280;30230;47.520;19.016;2023-04-02T02:50:35;98079.09;;;8.86;86.55
42289;BME280;30230;47.520;19.016;2023-04-02T02:52:37;98079.69;;;8.88;86.17
42289;BME280;30230;47.520;19.016;2023-04-02T02:54:42;98081.28;;;8.96;86.18
42289;BME280;30230;47.520;19.016;2023-04-02T02:56:55;98067.09;;;8.89;85.69
42289;BME280;30230;47.520;19.016;2023-04-02T02:58:56;98068.91;;;8.88;85.79
42289;BME280;30230;47.520;19.016;2023-04-02T03:00:59;98071.41;;;8.90;85.95
42289;BME280;30230;47.520;19.016;2023-04-02T03:03:04;98064.81;;;8.86;86.22
42289;BME280;30230;47.520;19.016;2023-04-02T03:05:07;98078.44;;;8.91;86.64
42289;BME280;30230;47.520;19.016;2023-04-02T03:07:08;98067.66;;;8.91;85.74
42289;BME280;30230;47.520;19.016;2023-04-02T03:09:19;98068.50;;;8.92;85.85
42289;BME280;30230;47.520;19.016;2023-04-02T03:11:39;98072.47;;;8.89;85.96
42289;BME280;30230;47.520;19.016;2023-04-02T03:13:45;98076.66;;;9.03;85.95
42289;BME280;30230;47.520;19.016;2023-04-02T03:16:17;98076.44;;;9.05;85.06
42289;BME280;30230;47.520;19.016;2023-04-02T03:18:41;98077.78;;;8.96;85.53
42289;BME280;30230;47.520;19.016;2023-04-02T03:20:56;98072.66;;;8.87;86.12
42289;BME280;30230;47.520;19.016;2023-04-02T03:27:30;98069.34;;;8.67;88.17
42289;BME280;30230;47.520;19.016;2023-04-02T03:29:35;98077.38;;;8.74;87.34
42289;BME280;30230;47.520;19.016;2023-04-02T03:31:40;98071.03;;;8.61;87.66
42289;BME280;30230;47.520;19.016;2023-04-02T03:33:57;98070.16;;;8.68;87.76
42289;BME280;30230;47.520;19.016;2023-04-02T03:40:17;98076.53;;;8.73;87.38
42289;BME280;30230;47.520;19.016;2023-04-02T03:42:24;98080.16;;;8.60;87.74
42289;BME280;30230;47.520;19.016;2023-04-02T03:46:36;98075.19;;;8.64;88.01
42289;BME280;30230;47.520;19.016;2023-04-02T03:48:45;98078.22;;;8.68;87.58
42289;BME280;30230;47.520;19.016;2023-04-02T03:51:12;98078.53;;;8.59;88.66
42289;BME280;30230;47.520;19.016;2023-04-02T03:53:15;98085.44;;;8.74;87.66
42289;BME280;30230;47.520;19.016;2023-04-02T03:55:24;98086.44;;;8.79;86.85
42289;BME280;30230;47.520;19.016;2023-04-02T03:57:36;98092.66;;;8.73;87.76
42289;BME280;30230;47.520;19.016;2023-04-02T03:59:47;98095.34;;;8.80;86.95
42289;BME280;30230;47.520;19.016;2023-04-02T04:01:55;98100.16;;;8.71;87.68
42289;BME280;30230;47.520;19.016;2023-04-02T04:04:05;98090.28;;;8.65;87.70
42289;BME280;30230;47.520;19.016;2023-04-02T04:06:14;98097.97;;;8.61;88.09
42289;BME280;30230;47.520;19.016;2023-04-02T04:08:33;98090.22;;;8.72;87.87
42289;BME280;30230;47.520;19.016;2023-04-02T04:10:37;98098.34;;;8.65;87.89
42289;BME280;30230;47.520;19.016;2023-04-02T04:12:41;98105.44;;;8.59;88.56
42289;BME280;30230;47.520;19.016;2023-04-02T04:14:47;98102.47;;;8.68;88.27
42289;BME280;30230;47.520;19.016;2023-04-02T04:16:56;98108.47;;;8.70;87.66
42289;BME280;30230;47.520;19.016;2023-04-02T04:19:04;98099.34;;;8.71;87.80
42289;BME280;30230;47.520;19.016;2023-04-02T04:21:22;98107.34;;;8.52;88.71
42289;BME280;30230;47.520;19.016;2023-04-02T04:23:35;98111.97;;;8.70;88.33
42289;BME280;30230;47.520;19.016;2023-04-02T04:25:36;98103.81;;;8.58;88.76
42289;BME280;30230;47.520;19.016;2023-04-02T04:27:52;98102.75;;;8.59;88.12
42289;BME280;30230;47.520;19.016;2023-04-02T04:32:34;98117.75;;;8.42;89.34
42289;BME280;30230;47.520;19.016;2023-04-02T04:34:42;98120.03;;;8.45;89.41
42289;BME280;30230;47.520;19.016;2023-04-02T04:36:57;98121.97;;;8.38;89.89
42289;BME280;30230;47.520;19.016;2023-04-02T04:39:06;98127.69;;;8.48;89.18
42289;BME280;30230;47.520;19.016;2023-04-02T04:41:13;98129.09;;;8.51;89.35
42289;BME280;30230;47.520;19.016;2023-04-02T04:43:26;98128.28;;;8.50;89.51
42289;BME280;30230;47.520;19.016;2023-04-02T04:45:37;98138.28;;;8.37;90.17
42289;BME280;30230;47.520;19.016;2023-04-02T04:47:48;98140.50;;;8.53;89.49
42289;BME280;30230;47.520;19.016;2023-04-02T04:50:10;98139.47;;;8.47;89.81
42289;BME280;30230;47.520;19.016;2023-04-02T04:52:23;98131.66;;;8.39;89.96
42289;BME280;30230;47.520;19.016;2023-04-02T04:54:27;98141.38;;;8.40;90.33
42289;BME280;30230;47.520;19.016;2023-04-02T04:56:29;98134.72;;;8.49;90.10
42289;BME280;30230;47.520;19.016;2023-04-02T04:58:41;98141.47;;;8.58;89.52
42289;BME280;30230;47.520;19.016;2023-04-02T05:05:25;98142.00;;;8.67;89.34
42289;BME280;30230;47.520;19.016;2023-04-02T05:07:43;98145.69;;;8.73;89.10
42289;BME280;30230;47.520;19.016;2023-04-02T05:17:32;98154.94;;;8.83;89.83
42289;BME280;30230;47.520;19.016;2023-04-02T05:19:44;98151.31;;;8.96;89.38
42289;BME280;30230;47.520;19.016;2023-04-02T05:21:53;98163.97;;;8.96;89.25
42289;BME280;30230;47.520;19.016;2023-04-02T05:24:26;98163.47;;;9.05;89.16
42289;BME280;30230;47.520;19.016;2023-04-02T05:26:36;98159.59;;;9.20;87.75
42289;BME280;30230;47.520;19.016;2023-04-02T05:33:00;98165.69;;;9.33;86.61
42289;BME280;30230;47.520;19.016;2023-04-02T05:35:01;98179.63;;;9.30;87.26
42289;BME280;30230;47.520;19.016;2023-04-02T05:37:05;98167.66;;;9.20;87.94
42289;BME280;30230;47.520;19.016;2023-04-02T05:39:20;98172.63;;;9.23;86.83
42289;BME280;30230;47.520;19.016;2023-04-02T05:43:32;98181.19;;;9.38;86.26
42289;BME280;30230;47.520;19.016;2023-04-02T05:45:38;98172.59;;;9.48;86.25
42289;BME280;30230;47.520;19.016;2023-04-02T05:47:41;98184.84;;;9.44;85.87
42289;BME280;30230;47.520;19.016;2023-04-02T05:50:20;98189.91;;;9.58;84.84
42289;BME280;30230;47.520;19.016;2023-04-02T05:52:27;98175.88;;;9.50;84.90
42289;BME280;30230;47.520;19.016;2023-04-02T05:54:35;98184.28;;;9.60;84.95
42289;BME280;30230;47.520;19.016;2023-04-02T05:56:41;98193.50;;;9.52;84.60
42289;BME280;30230;47.520;19.016;2023-04-02T05:58:56;98195.06;;;9.60;85.31
42289;BME280;30230;47.520;19.016;2023-04-02T06:01:20;98195.34;;;9.70;84.37
42289;BME280;30230;47.520;19.016;2023-04-02T06:03:43;98193.34;;;9.65;84.17
42289;BME280;30230;47.520;19.016;2023-04-02T06:05:45;98199.84;;;9.76;84.09
42289;BME280;30230;47.520;19.016;2023-04-02T06:09:56;98204.28;;;9.71;84.28
42289;BME280;30230;47.520;19.016;2023-04-02T06:14:11;98205.31;;;9.70;84.70
42289;BME280;30230;47.520;19.016;2023-04-02T06:16:13;98200.16;;;9.68;85.41
42289;BME280;30230;47.520;19.016;2023-04-02T06:18:21;98208.59;;;9.72;84.91
42289;BME280;30230;47.520;19.016;2023-04-02T06:20:22;98183.22;;;9.61;85.17
42289;BME280;30230;47.520;19.016;2023-04-02T06:22:37;98204.06;;;9.90;84.65
42289;BME280;30230;47.520;19.016;2023-04-02T06:24:39;98195.34;;;10.07;82.83
42289;BME280;30230;47.520;19.016;2023-04-02T06:26:44;98204.50;;;10.06;83.32
42289;BME280;30230;47.520;19.016;2023-04-02T06:28:54;98191.91;;;10.00;83.25
42289;BME280;30230;47.520;19.016;2023-04-02T06:31:03;98212.19;;;10.21;82.60
42289;BME280;30230;47.520;19.016;2023-04-02T06:33:10;98205.47;;;10.30;82.46
42289;BME280;30230;47.520;19.016;2023-04-02T06:35:12;98204.69;;;10.23;82.26
42289;BME280;30230;47.520;19.016;2023-04-02T06:37:33;98206.53;;;10.29;81.85
42289;BME280;30230;47.520;19.016;2023-04-02T06:39:35;98209.00;;;10.30;81.73
42289;BME280;30230;47.520;19.016;2023-04-02T06:41:35;98215.34;;;10.36;80.66
42289;BME280;30230;47.520;19.016;2023-04-02T06:45:54;98208.81;;;10.43;80.70
42289;BME280;30230;47.520;19.016;2023-04-02T06:47:59;98205.91;;;10.45;80.19
42289;BME280;30230;47.520;19.016;2023-04-02T06:52:29;98198.97;;;10.49;81.40
42289;BME280;30230;47.520;19.016;2023-04-02T06:54:28;98207.97;;;10.43;80.36
42289;BME280;30230;47.520;19.016;2023-04-02T06:58:38;98215.31;;;10.54;79.72
42289;BME280;30230;47.520;19.016;2023-04-02T07:00:42;98215.69;;;10.58;80.30
42289;BME280;30230;47.520;19.016;2023-04-02T07:02:42;98220.22;;;10.76;79.93
42289;BME280;30230;47.520;19.016;2023-04-02T07:04:43;98218.41;;;10.69;79.81
42289;BME280;30230;47.520;19.016;2023-04-02T07:06:43;98222.53;;;10.72;79.27
42289;BME280;30230;47.520;19.016;2023-04-02T07:08:44;98225.56;;;10.64;80.29
42289;BME280;30230;47.520;19.016;2023-04-02T07:10:45;98224.06;;;10.68;80.35
42289;BME280;30230;47.520;19.016;2023-04-02T07:12:46;98217.84;;;10.67;79.96
42289;BME280;30230;47.520;19.016;2023-04-02T07:14:47;98221.38;;;10.80;79.88
42289;BME280;30230;47.520;19.016;2023-04-02T07:16:47;98229.44;;;10.98;79.44
42289;BME280;30230;47.520;19.016;2023-04-02T07:18:48;98233.88;;;10.92;79.31
42289;BME280;30230;47.520;19.016;2023-04-02T07:20:48;98229.03;;;10.83;80.13
42289;BME280;30230;47.520;19.016;2023-04-02T07:22:49;98229.53;;;10.91;78.91
42289;BME280;30230;47.520;19.016;2023-04-02T07:24:49;98229.16;;;10.88;80.37
42289;BME280;30230;47.520;19.016;2023-04-02T07:26:50;98227.53;;;10.87;78.83
42289;BME280;30230;47.520;19.016;2023-04-02T07:28:51;98234.25;;;10.96;79.52
42289;BME280;30230;47.520;19.016;2023-04-02T07:30:51;98233.91;;;11.04;78.68
42289;BME280;30230;47.520;19.016;2023-04-02T07:32:52;98239.69;;;11.19;77.55
42289;BME280;30230;47.520;19.016;2023-04-02T07:34:52;98236.03;;;11.26;79.02
42289;BME280;30230;47.520;19.016;2023-04-02T07:36:53;98234.66;;;11.35;77.51
42289;BME280;30230;47.520;19.016;2023-04-02T07:38:54;98242.66;;;11.41;76.13
42289;BME280;30230;47.520;19.016;2023-04-02T07:40:55;98247.94;;;11.71;77.44
42289;BME280;30230;47.520;19.016;2023-04-02T07:42:55;98248.81;;;11.84;75.32
42289;BME280;30230;47.520;19.016;2023-04-02T07:44:55;98246.53;;;11.81;74.70
42289;BME280;30230;47.520;19.016;2023-04-02T07:46:56;98244.19;;;11.96;73.45
42289;BME280;30230;47.520;19.016;2023-04-02T07:48:59;98248.31;;;12.10;73.67
42289;BME280;30230;47.520;19.016;2023-04-02T07:50:59;98248.88;;;12.12;73.53
42289;BME280;30230;47.520;19.016;2023-04-02T07:53:02;98259.69;;;12.24;72.83
42289;BME280;30230;47.520;19.016;2023-04-02T07:55:03;98252.75;;;12.16;73.19
42289;BME280;30230;47.520;19.016;2023-04-02T07:57:04;98254.41;;;12.17;72.55
42289;BME280;30230;47.520;19.016;2023-04-02T07:59:05;98263.34;;;12.18;72.90
42289;BME280;30230;47.520;19.016;2023-04-02T08:01:14;98258.19;;;12.16;73.08
42289;BME280;30230;47.520;19.016;2023-04-02T08:03:15;98263.22;;;12.13;72.72
42289;BME280;30230;47.520;19.016;2023-04-02T08:05:16;98263.13;;;12.08;72.79
42289;BME280;30230;47.520;19.016;2023-04-02T08:07:17;98266.91;;;12.07;73.46
42289;BME280;30230;47.520;19.016;2023-04-02T08:09:18;98266.53;;;12.03;73.65
42289;BME280;30230;47.520;19.016;2023-04-02T08:11:18;98261.00;;;12.21;73.70
42289;BME280;30230;47.520;19.016;2023-04-02T08:13:19;98275.94;;;12.12;73.56
42289;BME280;30230;47.520;19.016;2023-04-02T08:15:19;98267.88;;;11.89;74.99
42289;BME280;30230;47.520;19.016;2023-04-02T08:17:20;98267.25;;;11.98;74.93
42289;BME280;30230;47.520;19.016;2023-04-02T08:19:21;98271.50;;;12.06;75.45
42289;BME280;30230;47.520;19.016;2023-04-02T08:21:21;98279.13;;;12.09;74.42
42289;BME280;30230;47.520;19.016;2023-04-02T08:23:22;98289.25;;;12.25;73.84
42289;BME280;30230;47.520;19.016;2023-04-02T08:25:23;98285.34;;;12.21;74.86
42289;BME280;30230;47.520;19.016;2023-04-02T08:27:24;98281.78;;;12.33;74.65
42289;BME280;30230;47.520;19.016;2023-04-02T08:29:25;98286.38;;;12.32;74.74
42289;BME280;30230;47.520;19.016;2023-04-02T08:31:28;98286.72;;;12.47;73.67
42289;BME280;30230;47.520;19.016;2023-04-02T08:33:29;98292.44;;;12.63;73.15
42289;BME280;30230;47.520;19.016;2023-04-02T08:35:30;98296.38;;;12.84;73.08
42289;BME280;30230;47.520;19.016;2023-04-02T08:37:30;98290.06;;;12.95;71.58
42289;BME280;30230;47.520;19.016;2023-04-02T08:39:31;98281.78;;;13.01;71.87
42289;BME280;30230;47.520;19.016;2023-04-02T08:41:37;98287.06;;;13.08;71.89
42289;BME280;30230;47.520;19.016;2023-04-02T08:43:50;98288.28;;;13.29;71.08
42289;BME280;30230;47.520;19.016;2023-04-02T08:46:13;98289.84;;;13.42;69.73
42289;BME280;30230;47.520;19.016;2023-04-02T08:48:17;98289.53;;;13.55;70.67
42289;BME280;30230;47.520;19.016;2023-04-02T08:50:39;98292.13;;;13.84;68.79
42289;BME280;30230;47.520;19.016;2023-04-02T08:52:40;98287.84;;;13.88;67.35
42289;BME280;30230;47.520;19.016;2023-04-02T08:54:40;98298.81;;;14.15;67.53
42289;BME280;30230;47.520;19.016;2023-04-02T08:56:48;98296.16;;;13.98;67.07
42289;BME280;30230;47.520;19.016;2023-04-02T08:58:57;98297.44;;;14.12;67.42
42289;BME280;30230;47.520;19.016;2023-04-02T09:01:00;98300.16;;;14.12;67.01
42289;BME280;30230;47.520;19.016;2023-04-02T09:03:19;98297.44;;;14.12;65.40
42289;BME280;30230;47.520;19.016;2023-04-02T09:05:32;98302.41;;;13.98;66.34
42289;BME280;30230;47.520;19.016;2023-04-02T09:07:33;98308.16;;;13.85;66.92
42289;BME280;30230;47.520;19.016;2023-04-02T09:09:36;98316.44;;;13.95;66.38
42289;BME280;30230;47.520;19.016;2023-04-02T09:11:40;98318.19;;;14.01;67.54
42289;BME280;30230;47.520;19.016;2023-04-02T09:13:45;98321.97;;;14.00;66.98
42289;BME280;30230;47.520;19.016;2023-04-02T09:15:48;98311.19;;;14.05;66.37
42289;BME280;30230;47.520;19.016;2023-04-02T09:17:59;98317.38;;;14.01;66.88
42289;BME280;30230;47.520;19.016;2023-04-02T09:22:24;98320.41;;;13.88;68.56
42289;BME280;30230;47.520;19.016;2023-04-02T09:24:25;98315.91;;;13.76;66.88
42289;BME280;30230;47.520;19.016;2023-04-02T09:26:30;98321.34;;;13.76;68.05
42289;BME280;30230;47.520;19.016;2023-04-02T09:28:31;98326.19;;;13.74;68.44
42289;BME280;30230;47.520;19.016;2023-04-02T09:34:37;98326.44;;;13.56;69.57
42289;BME280;30230;47.520;19.016;2023-04-02T09:36:38;98332.19;;;13.60;69.56
42289;BME280;30230;47.520;19.016;2023-04-02T09:38:39;98327.91;;;13.64;69.06
42289;BME280;30230;47.520;19.016;2023-04-02T09:43:15;98336.38;;;13.67;69.00
42289;BME280;30230;47.520;19.016;2023-04-02T09:47:24;98332.84;;;13.84;68.84
42289;BME280;30230;47.520;19.016;2023-04-02T09:49:28;98333.00;;;13.77;69.10
42289;BME280;30230;47.520;19.016;2023-04-02T09:51:32;98338.19;;;13.78;67.96
42289;BME280;30230;47.520;19.016;2023-04-02T09:53:43;98341.25;;;13.82;68.22
42289;BME280;30230;47.520;19.016;2023-04-02T09:55:45;98342.88;;;13.83;69.03
42289;BME280;30230;47.520;19.016;2023-04-02T09:57:47;98340.59;;;13.92;68.16
42289;BME280;30230;47.520;19.016;2023-04-02T10:02:25;98350.84;;;13.90;67.33
42289;BME280;30230;47.520;19.016;2023-04-02T10:04:38;98349.13;;;13.84;66.76
42289;BME280;30230;47.520;19.016;2023-04-02T10:06:49;98351.44;;;13.92;68.16
42289;BME280;30230;47.520;19.016;2023-04-02T10:08:53;98346.47;;;14.05;66.50
42289;BME280;30230;47.520;19.016;2023-04-02T10:10:59;98346.16;;;14.02;68.52
42289;BME280;30230;47.520;19.016;2023-04-02T10:15:20;98345.22;;;14.30;66.79
42289;BME280;30230;47.520;19.016;2023-04-02T10:17:31;98339.50;;;14.31;66.73
42289;BME280;30230;47.520;19.016;2023-04-02T10:19:38;98334.16;;;14.37;65.10
42289;BME280;30230;47.520;19.016;2023-04-02T10:21:41;98339.88;;;14.57;66.11
42289;BME280;30230;47.520;19.016;2023-04-02T10:23:43;98335.88;;;14.59;65.73
42289;BME280;30230;47.520;19.016;2023-04-02T10:25:54;98347.75;;;14.75;63.91
42289;BME280;30230;47.520;19.016;2023-04-02T10:28:11;98337.06;;;14.91;64.85
42289;BME280;30230;47.520;19.016;2023-04-02T10:30:29;98342.50;;;14.91;62.99
42289;BME280;30230;47.520;19.016;2023-04-02T10:35:02;98334.59;;;14.89;62.84
42289;BME280;30230;47.520;19.016;2023-04-02T10:39:42;98342.19;;;14.65;64.56
42289;BME280;30230;47.520;19.016;2023-04-02T10:44:04;98335.03;;;14.59;64.63
42289;BME280;30230;47.520;19.016;2023-04-02T10:50:54;98337.44;;;14.55;64.10
42289;BME280;30230;47.520;19.016;2023-04-02T10:53:15;98327.97;;;14.58;65.67
42289;BME280;30230;47.520;19.016;2023-04-02T10:55:29;98333.41;;;14.80;64.49
42289;BME280;30230;47.520;19.016;2023-04-02T10:57:33;98347.59;;;15.09;63.53
42289;BME280;30230;47.520;19.016;2023-04-02T10:59:39;98336.16;;;15.34;61.96
42289;BME280;30230;47.520;19.016;2023-04-02T11:01:42;98342.41;;;15.61;60.68
42289;BME280;30230;47.520;19.016;2023-04-02T11:03:51;98316.53;;;16.33;56.83
42289;BME280;30230;47.520;19.016;2023-04-02T11:05:57;98325.53;;;15.97;57.52
42289;BME280;30230;47.520;19.016;2023-04-02T11:08:00;98330.31;;;15.79;56.89
42289;BME280;30230;47.520;19.016;2023-04-02T11:10:01;98330.78;;;15.71;57.34
42289;BME280;30230;47.520;19.016;2023-04-02T11:12:04;98327.72;;;15.62;56.33
42289;BME280;30230;47.520;19.016;2023-04-02T11:14:11;98322.16;;;15.79;58.16
42289;BME280;30230;47.520;19.016;2023-04-02T11:16:13;98339.22;;;15.70;55.81
42289;BME280;30230;47.520;19.016;2023-04-02T11:18:28;98337.50;;;15.91;54.41
42289;BME280;30230;47.520;19.016;2023-04-02T11:20:53;98326.97;;;16.04;54.41
42289;BME280;30230;47.520;19.016;2023-04-02T11:23:27;98321.09;;;16.70;52.44
42289;BME280;30230;47.520;19.016;2023-04-02T11:25:29;98311.84;;;16.24;54.17
42289;BME280;30230;47.520;19.016;2023-04-02T11:27:31;98315.91;;;15.79;53.76
42289;BME280;30230;47.520;19.016;2023-04-02T11:38:51;98308.72;;;18.22;50.01
42289;BME280;30230;47.520;19.016;2023-04-02T11:50:01;98318.56;;;17.57;50.24
42289;BME280;30230;47.520;19.016;2023-04-02T11:52:03;98313.69;;;17.84;50.07
42289;BME280;30230;47.520;19.016;2023-04-02T11:54:04;98307.09;;;17.65;51.23
42289;BME280;30230;47.520;19.016;2023-04-02T12:01:13;98306.47;;;18.39;46.05
42289;BME280;30230;47.520;19.016;2023-04-02T12:08:23;98303.16;;;18.68;46.38
42289;BME280;30230;47.520;19.016;2023-04-02T12:10:31;98303.63;;;18.80;45.45
42289;BME280;30230;47.520;19.016;2023-04-02T12:12:36;98291.22;;;19.03;46.54
42289;BME280;30230;47.520;19.016;2023-04-02T12:14:46;98308.25;;;18.85;46.79
42289;BME280;30230;47.520;19.016;2023-04-02T12:16:47;98293.13;;;19.03;46.61
42289;BME280;30230;47.520;19.016;2023-04-02T12:18:49;98300.81;;;18.95;47.04
42289;BME280;30230;47.520;19.016;2023-04-02T12:20:54;98301.09;;;18.99;47.65
42289;BME280;30230;47.520;19.016;2023-04-02T12:22:56;98296.47;;;18.89;45.97
42289;BME280;30230;47.520;19.016;2023-04-02T12:25:44;98302.78;;;18.85;47.44
42289;BME280;30230;47.520;19.016;2023-04-02T12:27:21;98303.13;;;18.63;46.46
42289;BME280;30230;47.520;19.016;2023-04-02T12:29:27;98299.94;;;18.40;47.01
42289;BME280;30230;47.520;19.016;2023-04-02T12:31:28;98306.69;;;18.68;46.54
42289;BME280;30230;47.520;19.016;2023-04-02T12:33:31;98298.91;;;18.16;47.05
42289;BME280;30230;47.520;19.016;2023-04-02T12:35:34;98297.81;;;18.02;49.95
42289;BME280;30230;47.520;19.016;2023-04-02T12:37:35;98291.78;;;18.25;49.02
42289;BME280;30230;47.520;19.016;2023-04-02T12:39:35;98281.38;;;18.27;50.46
42289;BME280;30230;47.520;19.016;2023-04-02T12:41:36;98281.84;;;18.49;47.47
42289;BME280;30230;47.520;19.016;2023-04-02T12:43:37;98288.75;;;18.27;49.08
42289;BME280;30230;47.520;19.016;2023-04-02T12:45:39;98284.56;;;18.55;48.50
42289;BME280;30230;47.520;19.016;2023-04-02T12:47:43;98279.41;;;18.48;47.29
42289;BME280;30230;47.520;19.016;2023-04-02T12:49:44;98279.06;;;18.60;47.66
42289;BME280;30230;47.520;19.016;2023-04-02T12:51:45;98275.28;;;18.56;48.65
42289;BME280;30230;47.520;19.016;2023-04-02T12:53:51;98271.22;;;18.43;47.72
42289;BME280;30230;47.520;19.016;2023-04-02T12:55:52;98270.03;;;18.59;47.36
42289;BME280;30230;47.520;19.016;2023-04-02T12:57:57;98278.53;;;18.68;47.28
42289;BME280;30230;47.520;19.016;2023-04-02T13:00:00;98270.84;;;18.70;46.80
42289;BME280;30230;47.520;19.016;2023-04-02T13:02:22;98271.34;;;18.87;47.00
42289;BME280;30230;47.520;19.016;2023-04-02T13:04:23;98264.72;;;18.93;47.34
42289;BME280;30230;47.520;19.016;2023-04-02T13:06:23;98274.69;;;18.64;46.05
42289;BME280;30230;47.520;19.016;2023-04-02T13:08:28;98282.81;;;18.84;46.64
42289;BME280;30230;47.520;19.016;2023-04-02T13:10:30;98271.13;;;18.73;46.96
42289;BME280;30230;47.520;19.016;2023-04-02T13:12:36;98277.00;;;18.96;46.39